^^
Station Historical Data
Daily Summary for August 11, 2018 Units:  Both    English   Metric
« Previous Day
Next Day »
Daily Weekly Monthly Yearly Custom
  High: Low: Average:
Temperature: TemperatureF °F /  -17.8 °C 55.2 °F /  12.9 °C 68 °F /  20 °C
Dew Point: DewpointF °F /  -17.8 °C 53.2 °F /  11.8 °C 57.9 °F /  14.4 °C
Humidity: Humidity % 42 % 73 %
Wind Speed: WindSpeedMPH mph /  0 km/h - 0 mph /  0 km/h
Wind Gust: WindSpeedGustMPH mph /  0 km/h - -
Wind:- - SSW
Pressure: PressureIn in /  0 hPa 29.90 in /  1012.4 hPa -
Precipitation: 0 in /  0 mm    
Historical Graphs
 
 
Tabular Data for August 11, 2018
Time Temperature Dew Point Pressure Wind Wind Speed Wind Gust Humidity Rainfall Rate (Hourly) solar Conditions
TemperatureF °F /  -17.8 °C DewpointF °F /  -17.8 °C PressureIn in /  0 hPa Calm     Humidity % HourlyPrecipIn in /  0 mm SoftwareType W/m2 Conditions
00:00 62.1 °F /  16.7 °C 56.9 °F /  13.8 °C 29.90 in /  1012.4 hPa Calm     83 % 0 in /  0 mm WeatherDisplay:10.37 W/m2 RA
00:05 62.1 °F /  16.7 °C 56.9 °F /  13.8 °C 29.90 in /  1012.4 hPa Calm     83 % 0 in /  0 mm WeatherDisplay:10.37 W/m2 RA
00:10 62.1 °F /  16.7 °C 56.9 °F /  13.8 °C 29.90 in /  1012.4 hPa Calm     83 % 0 in /  0 mm WeatherDisplay:10.37 W/m2 FEW
00:15 62 °F /  16.7 °C 56.8 °F /  13.8 °C 29.90 in /  1012.4 hPa Calm     83 % 0 in /  0 mm WeatherDisplay:10.37 W/m2 FEW
00:20 62 °F /  16.7 °C 56.8 °F /  13.8 °C 29.90 in /  1012.4 hPa Calm   1 mph /  1.6 km/h 83 % 0 in /  0 mm WeatherDisplay:10.37 W/m2 FEW
00:25 61.9 °F /  16.6 °C 56.7 °F /  13.7 °C 29.90 in /  1012.4 hPa Calm     83 % 0 in /  0 mm WeatherDisplay:10.37 W/m2 FEW
00:30 61.9 °F /  16.6 °C 56.6 °F /  13.7 °C 29.90 in /  1012.4 hPa Calm     83 % 0 in /  0 mm WeatherDisplay:10.37 W/m2 FEW
00:35 61.8 °F /  16.6 °C 56.9 °F /  13.8 °C 29.90 in /  1012.4 hPa Calm     84 % 0 in /  0 mm WeatherDisplay:10.37 W/m2 FEW
00:40 61.7 °F /  16.5 °C 56.8 °F /  13.8 °C 29.90 in /  1012.4 hPa Calm     84 % 0 in /  0 mm WeatherDisplay:10.37 W/m2 FEW
00:45 61.6 °F /  16.4 °C 56.7 °F /  13.7 °C 29.90 in /  1012.4 hPa Calm     84 % 0 in /  0 mm WeatherDisplay:10.37 W/m2 FEW
00:50 61.5 °F /  16.4 °C 56.6 °F /  13.7 °C 29.90 in /  1012.4 hPa Calm     84 % 0 in /  0 mm WeatherDisplay:10.37 W/m2 FEW
00:55 61.4 °F /  16.3 °C 56.5 °F /  13.6 °C 29.90 in /  1012.4 hPa Calm     84 % 0 in /  0 mm WeatherDisplay:10.37 W/m2 FEW
01:00 61.3 °F /  16.3 °C 56.4 °F /  13.6 °C 29.90 in /  1012.4 hPa Calm     84 % 0 in /  0 mm WeatherDisplay:10.37 W/m2 FEW
01:05 61.1 °F /  16.2 °C 56.6 °F /  13.7 °C 29.90 in /  1012.4 hPa Calm     85 % 0 in /  0 mm WeatherDisplay:10.37 W/m2 FEW
01:10 61 °F /  16.1 °C 56.5 °F /  13.6 °C 29.90 in /  1012.4 hPa Calm     85 % 0 in /  0 mm WeatherDisplay:10.37 W/m2 FEW
01:15 60.8 °F /  16 °C 56.3 °F /  13.5 °C 29.91 in /  1012.8 hPa Calm     85 % 0 in /  0 mm WeatherDisplay:10.37 W/m2 FEW
01:20 60.6 °F /  15.9 °C 56.1 °F /  13.4 °C 29.91 in /  1012.8 hPa Calm     85 % 0 in /  0 mm WeatherDisplay:10.37 W/m2 FEW
01:25 60.4 °F /  15.8 °C 55.9 °F /  13.3 °C 29.91 in /  1012.8 hPa Calm     85 % 0 in /  0 mm WeatherDisplay:10.37 W/m2 FEW
01:30 60.3 °F /  15.7 °C 56.1 °F /  13.4 °C 29.91 in /  1012.8 hPa Calm     86 % 0 in /  0 mm WeatherDisplay:10.37 W/m2 FEW
01:35 60.1 °F /  15.6 °C 55.9 °F /  13.3 °C 29.91 in /  1012.8 hPa Calm     86 % 0 in /  0 mm WeatherDisplay:10.37 W/m2 FEW
01:40 59.9 °F /  15.5 °C 55.7 °F /  13.2 °C 29.91 in /  1012.8 hPa Calm     86 % 0 in /  0 mm WeatherDisplay:10.37 W/m2 FEW
01:45 59.8 °F /  15.4 °C 55.6 °F /  13.1 °C 29.91 in /  1012.8 hPa Calm     86 % 0 in /  0 mm WeatherDisplay:10.37 W/m2 FEW
01:50 59.6 °F /  15.3 °C 55.4 °F /  13 °C 29.91 in /  1012.8 hPa Calm     86 % 0 in /  0 mm WeatherDisplay:10.37 W/m2 FEW
01:55 59.5 °F /  15.3 °C 55.3 °F /  12.9 °C 29.91 in /  1012.8 hPa Calm     86 % 0 in /  0 mm WeatherDisplay:10.37 W/m2 FEW
02:00 59.3 °F /  15.2 °C 55.1 °F /  12.8 °C 29.91 in /  1012.8 hPa Calm     86 % 0 in /  0 mm WeatherDisplay:10.37 W/m2 FEW
02:05 59.2 °F /  15.1 °C 55 °F /  12.8 °C 29.91 in /  1012.8 hPa Calm     86 % 0 in /  0 mm WeatherDisplay:10.37 W/m2 FEW
02:10 59 °F /  15 °C 55.1 °F /  12.8 °C 29.91 in /  1012.8 hPa Calm     87 % 0 in /  0 mm WeatherDisplay:10.37 W/m2 FEW
02:15 58.9 °F /  14.9 °C 55 °F /  12.8 °C 29.91 in /  1012.8 hPa Calm     87 % 0 in /  0 mm WeatherDisplay:10.37 W/m2 FEW
02:20 58.7 °F /  14.8 °C 54.9 °F /  12.7 °C 29.91 in /  1012.8 hPa Calm     87 % 0 in /  0 mm WeatherDisplay:10.37 W/m2 FEW
02:25 58.6 °F /  14.8 °C 54.7 °F /  12.6 °C 29.91 in /  1012.8 hPa Calm     87 % 0 in /  0 mm WeatherDisplay:10.37 W/m2 FEW
02:30 58.5 °F /  14.7 °C 54.6 °F /  12.6 °C 29.91 in /  1012.8 hPa Calm     87 % 0 in /  0 mm WeatherDisplay:10.37 W/m2 FEW
02:35 58.3 °F /  14.6 °C 54.5 °F /  12.5 °C 29.91 in /  1012.8 hPa Calm     87 % 0 in /  0 mm WeatherDisplay:10.37 W/m2 FEW
02:40 58.2 °F /  14.6 °C 54.3 °F /  12.4 °C 29.91 in /  1012.8 hPa Calm     87 % 0 in /  0 mm WeatherDisplay:10.37 W/m2 FEW
02:45 58.1 °F /  14.5 °C 54.2 °F /  12.3 °C 29.91 in /  1012.8 hPa Calm     87 % 0 in /  0 mm WeatherDisplay:10.37 W/m2 FEW
02:50 57.9 °F /  14.4 °C 54.4 °F /  12.4 °C 29.91 in /  1012.8 hPa Calm     88 % 0 in /  0 mm WeatherDisplay:10.37 W/m2 FEW
02:55 57.8 °F /  14.3 °C 54.3 °F /  12.4 °C 29.91 in /  1012.8 hPa Calm     88 % 0 in /  0 mm WeatherDisplay:10.37 W/m2 FEW
03:00 57.7 °F /  14.3 °C 54.2 °F /  12.3 °C 29.91 in /  1012.8 hPa Calm     88 % 0 in /  0 mm WeatherDisplay:10.37 W/m2 FEW
03:05 57.6 °F /  14.2 °C 54.1 °F /  12.3 °C 29.91 in /  1012.8 hPa Calm     88 % 0 in /  0 mm WeatherDisplay:10.37 W/m2 FEW
03:10 57.5 °F /  14.2 °C 54 °F /  12.2 °C 29.91 in /  1012.8 hPa Calm     88 % 0 in /  0 mm WeatherDisplay:10.37 W/m2 FEW
03:15 57.4 °F /  14.1 °C 54.2 °F /  12.3 °C 29.91 in /  1012.8 hPa Calm     89 % 0 in /  0 mm WeatherDisplay:10.37 W/m2 FEW
03:20 57.3 °F /  14.1 °C 54.1 °F /  12.3 °C 29.91 in /  1012.8 hPa Calm     89 % 0 in /  0 mm WeatherDisplay:10.37 W/m2 FEW
03:25 57.2 °F /  14 °C 54 °F /  12.2 °C 29.91 in /  1012.8 hPa Calm     89 % 0 in /  0 mm WeatherDisplay:10.37 W/m2 FEW
03:30 57.1 °F /  13.9 °C 53.9 °F /  12.2 °C 29.91 in /  1012.8 hPa Calm     89 % 0 in /  0 mm WeatherDisplay:10.37 W/m2 FEW
03:35 57 °F /  13.9 °C 53.8 °F /  12.1 °C 29.91 in /  1012.8 hPa Calm     89 % 0 in /  0 mm WeatherDisplay:10.37 W/m2 FEW
03:40 56.9 °F /  13.8 °C 53.7 °F /  12.1 °C 29.91 in /  1012.8 hPa Calm     89 % 0 in /  0 mm WeatherDisplay:10.37 W/m2 FEW
03:45 56.9 °F /  13.8 °C 54 °F /  12.2 °C 29.91 in /  1012.8 hPa Calm     90 % 0 in /  0 mm WeatherDisplay:10.37 W/m2 FEW
03:50 56.8 °F /  13.8 °C 53.9 °F /  12.2 °C 29.91 in /  1012.8 hPa Calm     90 % 0 in /  0 mm WeatherDisplay:10.37 W/m2 FEW
03:55 56.7 °F /  13.7 °C 53.8 °F /  12.1 °C 29.91 in /  1012.8 hPa Calm     90 % 0 in /  0 mm WeatherDisplay:10.37 W/m2 FEW
04:00 56.7 °F /  13.7 °C 53.8 °F /  12.1 °C 29.91 in /  1012.8 hPa Calm     90 % 0 in /  0 mm WeatherDisplay:10.37 W/m2 FEW
04:05 56.6 °F /  13.7 °C 53.7 °F /  12.1 °C 29.91 in /  1012.8 hPa Calm     90 % 0 in /  0 mm WeatherDisplay:10.37 W/m2 FEW
04:10 56.5 °F /  13.6 °C 53.6 °F /  12 °C 29.91 in /  1012.8 hPa Calm     90 % 0 in /  0 mm WeatherDisplay:10.37 W/m2 FEW
04:15 56.4 °F /  13.6 °C 53.5 °F /  11.9 °C 29.91 in /  1012.8 hPa Calm     90 % 0 in /  0 mm WeatherDisplay:10.37 W/m2 FEW
04:20 56.4 °F /  13.6 °C 53.8 °F /  12.1 °C 29.91 in /  1012.8 hPa Calm     91 % 0 in /  0 mm WeatherDisplay:10.37 W/m2 FEW
04:25 56.3 °F /  13.5 °C 53.7 °F /  12.1 °C 29.91 in /  1012.8 hPa Calm     91 % 0 in /  0 mm WeatherDisplay:10.37 W/m2 FEW
04:30 56.2 °F /  13.4 °C 53.6 °F /  12 °C 29.91 in /  1012.8 hPa Calm     91 % 0 in /  0 mm WeatherDisplay:10.37 W/m2 FEW
04:35 56.1 °F /  13.4 °C 53.5 °F /  11.9 °C 29.91 in /  1012.8 hPa Calm     91 % 0 in /  0 mm WeatherDisplay:10.37 W/m2 FEW
04:40 56.1 °F /  13.4 °C 53.5 °F /  11.9 °C 29.91 in /  1012.8 hPa Calm     91 % 0 in /  0 mm WeatherDisplay:10.37 W/m2 FEW
04:45 56 °F /  13.3 °C 53.4 °F /  11.9 °C 29.91 in /  1012.8 hPa Calm     91 % 0 in /  0 mm WeatherDisplay:10.37 W/m2 FEW
04:50 55.9 °F /  13.3 °C 53.6 °F /  12 °C 29.91 in /  1012.8 hPa Calm     92 % 0 in /  0 mm WeatherDisplay:10.37 W/m2 FEW
04:55 55.8 °F /  13.2 °C 53.5 °F /  11.9 °C 29.91 in /  1012.8 hPa Calm     92 % 0 in /  0 mm WeatherDisplay:10.37 W/m2 FEW
05:00 55.8 °F /  13.2 °C 53.5 °F /  11.9 °C 29.91 in /  1012.8 hPa Calm     92 % 0 in /  0 mm WeatherDisplay:10.37 W/m2 FEW
05:05 55.7 °F /  13.2 °C 53.4 °F /  11.9 °C 29.91 in /  1012.8 hPa Calm     92 % 0 in /  0 mm WeatherDisplay:10.37 W/m2 FEW
05:10 55.7 °F /  13.2 °C 53.4 °F /  11.9 °C 29.92 in /  1013.1 hPa Calm     92 % 0 in /  0 mm WeatherDisplay:10.37 W/m2 FEW
05:15 55.6 °F /  13.1 °C 53.3 °F /  11.8 °C 29.92 in /  1013.1 hPa Calm     92 % 0 in /  0 mm WeatherDisplay:10.37 W/m2 FEW
05:20 55.6 °F /  13.1 °C 53.6 °F /  12 °C 29.92 in /  1013.1 hPa Calm     93 % 0 in /  0 mm WeatherDisplay:10.37 W/m2 FEW
05:25 55.6 °F /  13.1 °C 53.6 °F /  12 °C 29.92 in /  1013.1 hPa Calm     93 % 0 in /  0 mm WeatherDisplay:10.37 W/m2 FEW
05:30 55.5 °F /  13.1 °C 53.5 °F /  11.9 °C 29.92 in /  1013.1 hPa Calm     93 % 0 in /  0 mm WeatherDisplay:10.37 W/m2 FEW
05:35 55.5 °F /  13.1 °C 53.5 °F /  11.9 °C 29.92 in /  1013.1 hPa Calm     93 % 0 in /  0 mm WeatherDisplay:10.37 W/m2 FEW
05:40 55.5 °F /  13.1 °C 53.5 °F /  11.9 °C 29.92 in /  1013.1 hPa Calm     93 % 0 in /  0 mm WeatherDisplay:10.37 W/m2 FEW
05:45 55.4 °F /  13 °C 53.4 °F /  11.9 °C 29.92 in /  1013.1 hPa Calm     93 % 0 in /  0 mm WeatherDisplay:10.37 W/m2 FEW
05:50 55.4 °F /  13 °C 53.4 °F /  11.9 °C 29.93 in /  1013.4 hPa Calm     93 % 0 in /  0 mm WeatherDisplay:10.37 W/m2 FEW
05:55 55.4 °F /  13 °C 53.4 °F /  11.9 °C 29.93 in /  1013.4 hPa Calm     93 % 0 in /  0 mm WeatherDisplay:10.37 W/m2 FEW
06:00 55.3 °F /  12.9 °C 53.3 °F /  11.8 °C 29.93 in /  1013.4 hPa Calm     93 % 0 in /  0 mm WeatherDisplay:10.37 W/m2 FEW
06:05 55.3 °F /  12.9 °C 53.3 °F /  11.8 °C 29.93 in /  1013.4 hPa Calm     93 % 0 in /  0 mm WeatherDisplay:10.37 W/m2 FEW
06:10 55.3 °F /  12.9 °C 53.3 °F /  11.8 °C 29.93 in /  1013.4 hPa Calm     93 % 0 in /  0 mm WeatherDisplay:10.37 W/m2 FEW
06:15 55.2 °F /  12.9 °C 53.2 °F /  11.8 °C 29.93 in /  1013.4 hPa Calm     93 % 0 in /  0 mm WeatherDisplay:10.37 W/m2 FEW
06:20 55.2 °F /  12.9 °C 53.5 °F /  11.9 °C 29.93 in /  1013.4 hPa Calm     94 % 0 in /  0 mm WeatherDisplay:10.37 W/m2 FEW
06:25 55.2 °F /  12.9 °C 53.5 °F /  11.9 °C 29.93 in /  1013.4 hPa Calm     94 % 0 in /  0 mm WeatherDisplay:10.37 W/m2 FEW
06:30 55.2 °F /  12.9 °C 53.5 °F /  11.9 °C 29.94 in /  1013.8 hPa Calm     94 % 0 in /  0 mm WeatherDisplay:10.37 W/m2 FEW
06:35 55.3 °F /  12.9 °C 53.6 °F /  12 °C 29.94 in /  1013.8 hPa Calm     94 % 0 in /  0 mm WeatherDisplay:10.37 W/m2 FEW
06:40 55.3 °F /  12.9 °C 53.6 °F /  12 °C 29.94 in /  1013.8 hPa Calm     94 % 0 in /  0 mm WeatherDisplay:10.37 W/m2 FEW
06:45 55.4 °F /  13 °C 53.7 °F /  12.1 °C 29.94 in /  1013.8 hPa Calm     94 % 0 in /  0 mm WeatherDisplay:10.37 W/m2 FEW
06:50 55.4 °F /  13 °C 53.7 °F /  12.1 °C 29.94 in /  1013.8 hPa Calm     94 % 0 in /  0 mm WeatherDisplay:10.37 W/m2 FEW
06:55 55.5 °F /  13.1 °C 54.1 °F /  12.3 °C 29.94 in /  1013.8 hPa Calm     95 % 0 in /  0 mm WeatherDisplay:10.37 W/m2 FEW
07:00 55.6 °F /  13.1 °C 54.2 °F /  12.3 °C 29.94 in /  1013.8 hPa Calm     95 % 0 in /  0 mm WeatherDisplay:10.37 W/m2 FEW
07:05 55.7 °F /  13.2 °C 54.3 °F /  12.4 °C 29.94 in /  1013.8 hPa Calm     95 % 0 in /  0 mm WeatherDisplay:10.37 W/m2 FEW
07:10 55.7 °F /  13.2 °C 54.3 °F /  12.4 °C 29.94 in /  1013.8 hPa Calm     95 % 0 in /  0 mm WeatherDisplay:10.37 W/m2 FEW
07:15 55.8 °F /  13.2 °C 54.4 °F /  12.4 °C 29.93 in /  1013.4 hPa Calm     95 % 0 in /  0 mm WeatherDisplay:10.37 W/m2 FEW
07:20 55.9 °F /  13.3 °C 54.5 °F /  12.5 °C 29.93 in /  1013.4 hPa Calm     95 % 0 in /  0 mm WeatherDisplay:10.37 W/m2 FEW
07:25 56.1 °F /  13.4 °C 54.7 °F /  12.6 °C 29.94 in /  1013.8 hPa Calm     95 % 0 in /  0 mm WeatherDisplay:10.37 W/m2 FEW
07:30 56.3 °F /  13.5 °C 54.9 °F /  12.7 °C 29.94 in /  1013.8 hPa Calm     95 % 0 in /  0 mm WeatherDisplay:10.37 W/m2 FEW
07:35 56.5 °F /  13.6 °C 55.4 °F /  13 °C 29.94 in /  1013.8 hPa Calm     96 % 0 in /  0 mm WeatherDisplay:10.37 W/m2 FEW
07:40 56.7 °F /  13.7 °C 55.6 °F /  13.1 °C 29.94 in /  1013.8 hPa Calm     96 % 0 in /  0 mm WeatherDisplay:10.37 W/m2 FEW
07:45 57.1 °F /  13.9 °C 55.9 °F /  13.3 °C 29.94 in /  1013.8 hPa Calm     96 % 0 in /  0 mm WeatherDisplay:10.37 W/m2 FEW
07:50 57.4 °F /  14.1 °C 56.3 °F /  13.5 °C 29.94 in /  1013.8 hPa Calm     96 % 0 in /  0 mm WeatherDisplay:10.37 W/m2 FEW
07:55 57.9 °F /  14.4 °C 56.7 °F /  13.7 °C 29.94 in /  1013.8 hPa Calm     96 % 0 in /  0 mm WeatherDisplay:10.37 W/m2 FEW
08:00 58.3 °F /  14.6 °C 58.3 °F /  14.6 °C 29.94 in /  1013.8 hPa Calm     100 % 0 in /  0 mm WeatherDisplay:10.37 W/m2 FEW
08:05 58.7 °F /  14.8 °C 58.7 °F /  14.8 °C 29.95 in /  1014.1 hPa Calm     100 % 0 in /  0 mm WeatherDisplay:10.37 W/m2 FEW
08:10 59.1 °F /  15.1 °C 59.1 °F /  15.1 °C 29.95 in /  1014.1 hPa Calm     100 % 0 in /  0 mm WeatherDisplay:10.37 W/m2 FEW
08:15 59.3 °F /  15.2 °C 59.3 °F /  15.2 °C 29.95 in /  1014.1 hPa Calm     100 % 0 in /  0 mm WeatherDisplay:10.37 W/m2 FEW
08:20 59.6 °F /  15.3 °C 58.4 °F /  14.7 °C 29.95 in /  1014.1 hPa Calm     96 % 0 in /  0 mm WeatherDisplay:10.37 W/m2 FEW
08:25 59.8 °F /  15.4 °C 58.7 °F /  14.8 °C 29.95 in /  1014.1 hPa Calm     96 % 0 in /  0 mm WeatherDisplay:10.37 W/m2 FEW
08:30 60 °F /  15.6 °C 60 °F /  15.6 °C 29.95 in /  1014.1 hPa Calm     100 % 0 in /  0 mm WeatherDisplay:10.37 W/m2 FEW
08:35 60.2 °F /  15.7 °C 59.1 °F /  15.1 °C 29.95 in /  1014.1 hPa Calm     96 % 0 in /  0 mm WeatherDisplay:10.37 W/m2 FEW
08:40 60.6 °F /  15.9 °C 59.4 °F /  15.2 °C 29.95 in /  1014.1 hPa Calm     96 % 0 in /  0 mm WeatherDisplay:10.37 W/m2 FEW
08:45 61.1 °F /  16.2 °C 59.9 °F /  15.5 °C 29.95 in /  1014.1 hPa Calm     96 % 0 in /  0 mm WeatherDisplay:10.37 W/m2 FEW
08:50 61.5 °F /  16.4 °C 60.1 °F /  15.6 °C 29.95 in /  1014.1 hPa Calm     95 % 0 in /  0 mm WeatherDisplay:10.37 W/m2 FEW
08:55 62.1 °F /  16.7 °C 60.4 °F /  15.8 °C 29.95 in /  1014.1 hPa Calm     94 % 0 in /  0 mm WeatherDisplay:10.37 W/m2 FEW
09:00 62.7 °F /  17.1 °C 60.6 °F /  15.9 °C 29.95 in /  1014.1 hPa Calm     93 % 0 in /  0 mm WeatherDisplay:10.37 W/m2 FEW
09:05 63.4 °F /  17.4 °C 59.7 °F /  15.4 °C 29.95 in /  1014.1 hPa Calm   1 mph /  1.6 km/h 88 % 0 in /  0 mm WeatherDisplay:10.37 W/m2 FEW
09:10 64.2 °F /  17.9 °C 59.9 °F /  15.5 °C 29.95 in /  1014.1 hPa Calm   1 mph /  1.6 km/h 86 % 0 in /  0 mm WeatherDisplay:10.37 W/m2 FEW
09:15 65.1 °F /  18.4 °C 60.1 °F /  15.6 °C 29.95 in /  1014.1 hPa Calm   1 mph /  1.6 km/h 84 % 0 in /  0 mm WeatherDisplay:10.37 W/m2 FEW
09:20 66 °F /  18.9 °C 60.3 °F /  15.7 °C 29.95 in /  1014.1 hPa Calm     82 % 0 in /  0 mm WeatherDisplay:10.37 W/m2 FEW
09:25 66.7 °F /  19.3 °C 60.7 °F /  15.9 °C 29.96 in /  1014.4 hPa Calm   1 mph /  1.6 km/h 81 % 0 in /  0 mm WeatherDisplay:10.37 W/m2 FEW
09:30 67.5 °F /  19.7 °C 61.1 °F /  16.2 °C 29.95 in /  1014.1 hPa Calm   1 mph /  1.6 km/h 80 % 0 in /  0 mm WeatherDisplay:10.37 W/m2 FEW
09:35 68 °F /  20 °C 60.9 °F /  16.1 °C 29.96 in /  1014.4 hPa Calm   1 mph /  1.6 km/h 78 % 0 in /  0 mm WeatherDisplay:10.37 W/m2 FEW
09:40 68.6 °F /  20.3 °C 60.7 °F /  15.9 °C 29.96 in /  1014.4 hPa Calm     76 % 0 in /  0 mm WeatherDisplay:10.37 W/m2 FEW
09:45 69.3 °F /  20.7 °C 61 °F /  16.1 °C 29.96 in /  1014.4 hPa Calm   2 mph /  3.2 km/h 75 % 0 in /  0 mm WeatherDisplay:10.37 W/m2 FEW
09:50 69.8 °F /  21 °C 61.1 °F /  16.2 °C 29.96 in /  1014.4 hPa Calm     74 % 0 in /  0 mm WeatherDisplay:10.37 W/m2 FEW
09:55 70.3 °F /  21.3 °C 60.5 °F /  15.8 °C 29.96 in /  1014.4 hPa Calm   1 mph /  1.6 km/h 71 % 0 in /  0 mm WeatherDisplay:10.37 W/m2 FEW
10:00 70.8 °F /  21.6 °C 60.1 °F /  15.6 °C 29.96 in /  1014.4 hPa NW 1 mph /  1.6 km/h 2 mph /  3.2 km/h 69 % 0 in /  0 mm WeatherDisplay:10.37 W/m2 FEW
10:05 71.4 °F /  21.9 °C 61.1 °F /  16.2 °C 29.96 in /  1014.4 hPa Calm     70 % 0 in /  0 mm WeatherDisplay:10.37 W/m2 FEW
10:10 71.9 °F /  22.2 °C 61.6 °F /  16.4 °C 29.96 in /  1014.4 hPa Calm   2 mph /  3.2 km/h 70 % 0 in /  0 mm WeatherDisplay:10.37 W/m2 FEW
10:15 72.5 °F /  22.5 °C 61.7 °F /  16.5 °C 29.96 in /  1014.4 hPa Calm   2 mph /  3.2 km/h 69 % 0 in /  0 mm WeatherDisplay:10.37 W/m2 FEW
10:20 73 °F /  22.8 °C 62.2 °F /  16.8 °C 29.96 in /  1014.4 hPa Calm   1 mph /  1.6 km/h 69 % 0 in /  0 mm WeatherDisplay:10.37 W/m2 FEW
10:25 73.4 °F /  23 °C 61.8 °F /  16.6 °C 29.96 in /  1014.4 hPa Calm   1 mph /  1.6 km/h 67 % 0 in /  0 mm WeatherDisplay:10.37 W/m2 FEW
10:30 73.7 °F /  23.2 °C 61.2 °F /  16.2 °C 29.96 in /  1014.4 hPa Calm   2 mph /  3.2 km/h 65 % 0 in /  0 mm WeatherDisplay:10.37 W/m2 FEW
10:35 74.2 °F /  23.4 °C 62.6 °F /  17 °C 29.96 in /  1014.4 hPa Calm     67 % 0 in /  0 mm WeatherDisplay:10.37 W/m2 FEW
10:40 74.6 °F /  23.7 °C 61.6 °F /  16.4 °C 29.96 in /  1014.4 hPa Calm     64 % 0 in /  0 mm WeatherDisplay:10.37 W/m2 FEW
10:45 75.1 °F /  23.9 °C 62 °F /  16.7 °C 29.96 in /  1014.4 hPa Calm     64 % 0 in /  0 mm WeatherDisplay:10.37 W/m2 FEW
10:50 75.5 °F /  24.2 °C 61.6 °F /  16.4 °C 29.96 in /  1014.4 hPa Calm   3 mph /  4.8 km/h 62 % 0 in /  0 mm WeatherDisplay:10.37 W/m2 FEW
10:55 75.9 °F /  24.4 °C 62 °F /  16.7 °C 29.97 in /  1014.8 hPa Calm     62 % 0 in /  0 mm WeatherDisplay:10.37 W/m2 FEW
11:00 76.4 °F /  24.7 °C 63.3 °F /  17.4 °C 29.97 in /  1014.8 hPa Calm     64 % 0 in /  0 mm WeatherDisplay:10.37 W/m2 FEW
11:05 76.8 °F /  24.9 °C 62.4 °F /  16.9 °C 29.97 in /  1014.8 hPa Calm   3 mph /  4.8 km/h 61 % 0 in /  0 mm WeatherDisplay:10.37 W/m2 FEW
11:10 77.2 °F /  25.1 °C 61.7 °F /  16.5 °C 29.97 in /  1014.8 hPa Calm   3 mph /  4.8 km/h 59 % 0 in /  0 mm WeatherDisplay:10.37 W/m2 FEW
11:15 77.5 °F /  25.3 °C 61.1 °F /  16.2 °C 29.97 in /  1014.8 hPa Calm   2 mph /  3.2 km/h 57 % 0 in /  0 mm WeatherDisplay:10.37 W/m2 FEW
11:20 77.8 °F /  25.4 °C 61.8 °F /  16.6 °C 29.97 in /  1014.8 hPa Calm   2 mph /  3.2 km/h 58 % 0 in /  0 mm WeatherDisplay:10.37 W/m2 FEW
11:25 78 °F /  25.6 °C 61 °F /  16.1 °C 29.97 in /  1014.8 hPa Calm   4 mph /  6.4 km/h 56 % 0 in /  0 mm WeatherDisplay:10.37 W/m2 FEW
11:30 78.2 °F /  25.7 °C 61.2 °F /  16.2 °C 29.97 in /  1014.8 hPa Calm   2 mph /  3.2 km/h 56 % 0 in /  0 mm WeatherDisplay:10.37 W/m2 FEW
11:35 78.2 °F /  25.7 °C 61.7 °F /  16.5 °C 29.97 in /  1014.8 hPa Calm   1 mph /  1.6 km/h 57 % 0 in /  0 mm WeatherDisplay:10.37 W/m2 FEW
11:40 78.4 °F /  25.8 °C 61.9 °F /  16.6 °C 29.97 in /  1014.8 hPa Calm   5 mph /  8 km/h 57 % 0 in /  0 mm WeatherDisplay:10.37 W/m2 FEW
11:45 78.4 °F /  25.8 °C 62.4 °F /  16.9 °C 29.96 in /  1014.4 hPa Calm   3 mph /  4.8 km/h 58 % 0 in /  0 mm WeatherDisplay:10.37 W/m2 FEW
11:50 78.5 °F /  25.8 °C 61 °F /  16.1 °C 29.96 in /  1014.4 hPa Calm     55 % 0 in /  0 mm WeatherDisplay:10.37 W/m2 FEW
11:55 78.6 °F /  25.9 °C 61.6 °F /  16.4 °C 29.96 in /  1014.4 hPa Calm   2 mph /  3.2 km/h 56 % 0 in /  0 mm WeatherDisplay:10.37 W/m2 FEW
12:00 78.6 °F /  25.9 °C 61.1 °F /  16.2 °C 29.97 in /  1014.8 hPa Calm   1 mph /  1.6 km/h 55 % 0 in /  0 mm WeatherDisplay:10.37 W/m2 FEW
12:05 78.6 °F /  25.9 °C 60.6 °F /  15.9 °C 29.97 in /  1014.8 hPa Calm   1 mph /  1.6 km/h 54 % 0 in /  0 mm WeatherDisplay:10.37 W/m2 FEW
12:10 78.6 °F /  25.9 °C 60.6 °F /  15.9 °C 29.96 in /  1014.4 hPa Calm   3 mph /  4.8 km/h 54 % 0 in /  0 mm WeatherDisplay:10.37 W/m2 FEW
12:15 78.6 °F /  25.9 °C 60.6 °F /  15.9 °C 29.97 in /  1014.8 hPa Calm   3 mph /  4.8 km/h 54 % 0 in /  0 mm WeatherDisplay:10.37 W/m2 FEW
12:20 78.6 °F /  25.9 °C 61.1 °F /  16.2 °C 29.96 in /  1014.4 hPa Calm   2 mph /  3.2 km/h 55 % 0 in /  0 mm WeatherDisplay:10.37 W/m2 FEW
12:25 78.6 °F /  25.9 °C 60.6 °F /  15.9 °C 29.96 in /  1014.4 hPa NW 1 mph /  1.6 km/h 4 mph /  6.4 km/h 54 % 0 in /  0 mm WeatherDisplay:10.37 W/m2 FEW
12:30 78.6 °F /  25.9 °C 60.6 °F /  15.9 °C 29.97 in /  1014.8 hPa WNW 1 mph /  1.6 km/h 5 mph /  8 km/h 54 % 0 in /  0 mm WeatherDisplay:10.37 W/m2 FEW
12:35 78.6 °F /  25.9 °C 61.1 °F /  16.2 °C 29.96 in /  1014.4 hPa Calm   3 mph /  4.8 km/h 55 % 0 in /  0 mm WeatherDisplay:10.37 W/m2 FEW
12:40 78.7 °F /  25.9 °C 61.7 °F /  16.5 °C 29.96 in /  1014.4 hPa Calm   2 mph /  3.2 km/h 56 % 0 in /  0 mm WeatherDisplay:10.37 W/m2 FEW
12:45 78.7 °F /  25.9 °C 61.2 °F /  16.2 °C 29.96 in /  1014.4 hPa Calm   2 mph /  3.2 km/h 55 % 0 in /  0 mm WeatherDisplay:10.37 W/m2 FEW
12:50 78.8 °F /  26 °C 61.8 °F /  16.6 °C 29.96 in /  1014.4 hPa Calm   3 mph /  4.8 km/h 56 % 0 in /  0 mm WeatherDisplay:10.37 W/m2 FEW
12:55 78.8 °F /  26 °C 62.3 °F /  16.8 °C 29.96 in /  1014.4 hPa Calm   1 mph /  1.6 km/h 57 % 0 in /  0 mm WeatherDisplay:10.37 W/m2 FEW
13:00 78.9 °F /  26.1 °C 61.8 °F /  16.6 °C 29.96 in /  1014.4 hPa ENE 1 mph /  1.6 km/h 5 mph /  8 km/h 56 % 0 in /  0 mm WeatherDisplay:10.37 W/m2 FEW
13:05 78.9 °F /  26.1 °C 60.3 °F /  15.7 °C 29.96 in /  1014.4 hPa Calm   1 mph /  1.6 km/h 53 % 0 in /  0 mm WeatherDisplay:10.37 W/m2 FEW
13:10 79 °F /  26.1 °C 60.9 °F /  16.1 °C 29.96 in /  1014.4 hPa Calm     54 % 0 in /  0 mm WeatherDisplay:10.37 W/m2 FEW
13:15 79.1 °F /  26.2 °C 59.4 °F /  15.2 °C 29.96 in /  1014.4 hPa Calm   3 mph /  4.8 km/h 51 % 0 in /  0 mm WeatherDisplay:10.37 W/m2 FEW
13:20 79.1 °F /  26.2 °C 60.5 °F /  15.8 °C 29.96 in /  1014.4 hPa Calm     53 % 0 in /  0 mm WeatherDisplay:10.37 W/m2 FEW
13:25 79.2 °F /  26.2 °C 61.1 °F /  16.2 °C 29.96 in /  1014.4 hPa Calm   2 mph /  3.2 km/h 54 % 0 in /  0 mm WeatherDisplay:10.37 W/m2 FEW
13:30 79.3 °F /  26.3 °C 60.1 °F /  15.6 °C 29.96 in /  1014.4 hPa Calm     52 % 0 in /  0 mm WeatherDisplay:10.37 W/m2 FEW
13:35 79.5 °F /  26.4 °C 60.9 °F /  16.1 °C 29.96 in /  1014.4 hPa Calm   4 mph /  6.4 km/h 53 % 0 in /  0 mm WeatherDisplay:10.37 W/m2 FEW
13:40 79.5 °F /  26.4 °C 60.3 °F /  15.7 °C 29.96 in /  1014.4 hPa Calm   1 mph /  1.6 km/h 52 % 0 in /  0 mm WeatherDisplay:10.37 W/m2 FEW
13:45 79.6 °F /  26.4 °C 59.9 °F /  15.5 °C 29.96 in /  1014.4 hPa Calm   4 mph /  6.4 km/h 51 % 0 in /  0 mm WeatherDisplay:10.37 W/m2 FEW
13:50 79.7 °F /  26.5 °C 60.5 °F /  15.8 °C 29.96 in /  1014.4 hPa Calm   3 mph /  4.8 km/h 52 % 0 in /  0 mm WeatherDisplay:10.37 W/m2 FEW
13:55 79.8 °F /  26.6 °C 60.1 °F /  15.6 °C 29.96 in /  1014.4 hPa Calm   2 mph /  3.2 km/h 51 % 0 in /  0 mm WeatherDisplay:10.37 W/m2 FEW
14:00 79.9 °F /  26.6 °C 60.7 °F /  15.9 °C 29.96 in /  1014.4 hPa Calm     52 % 0 in /  0 mm WeatherDisplay:10.37 W/m2 FEW
14:05 80 °F /  26.7 °C 60.8 °F /  16 °C 29.96 in /  1014.4 hPa Calm   4 mph /  6.4 km/h 52 % 0 in /  0 mm WeatherDisplay:10.37 W/m2 FEW
14:10 80.2 °F /  26.8 °C 61 °F /  16.1 °C 29.96 in /  1014.4 hPa Calm     52 % 0 in /  0 mm WeatherDisplay:10.37 W/m2 FEW
14:15 80.4 °F /  26.9 °C 58.9 °F /  14.9 °C 29.96 in /  1014.4 hPa Calm     48 % 0 in /  0 mm WeatherDisplay:10.37 W/m2 FEW
14:20 80.4 °F /  26.9 °C 60.1 °F /  15.6 °C 29.96 in /  1014.4 hPa Calm     50 % 0 in /  0 mm WeatherDisplay:10.37 W/m2 FEW
14:25 80.5 °F /  26.9 °C 60.1 °F /  15.6 °C 29.96 in /  1014.4 hPa Calm   1 mph /  1.6 km/h 50 % 0 in /  0 mm WeatherDisplay:10.37 W/m2 FEW
14:30 80.4 °F /  26.9 °C 61.7 °F /  16.5 °C 29.96 in /  1014.4 hPa Calm     53 % 0 in /  0 mm WeatherDisplay:10.37 W/m2 FEW
14:35 80.3 °F /  26.8 °C 61.6 °F /  16.4 °C 29.95 in /  1014.1 hPa Calm     53 % 0 in /  0 mm WeatherDisplay:10.37 W/m2 FEW
14:40 80.3 °F /  26.8 °C 61.6 °F /  16.4 °C 29.95 in /  1014.1 hPa Calm     53 % 0 in /  0 mm WeatherDisplay:10.37 W/m2 FEW
14:45 80.3 °F /  26.8 °C 60.5 °F /  15.8 °C 29.95 in /  1014.1 hPa Calm   1 mph /  1.6 km/h 51 % 0 in /  0 mm WeatherDisplay:10.37 W/m2 FEW
14:50 80.4 °F /  26.9 °C 61.2 °F /  16.2 °C 29.95 in /  1014.1 hPa Calm     52 % 0 in /  0 mm WeatherDisplay:10.37 W/m2 FEW
14:55 80.3 °F /  26.8 °C 61.6 °F /  16.4 °C 29.95 in /  1014.1 hPa Calm     53 % 0 in /  0 mm WeatherDisplay:10.37 W/m2 FEW
15:00 80.2 °F /  26.8 °C 61.5 °F /  16.4 °C 29.95 in /  1014.1 hPa Calm     53 % 0 in /  0 mm WeatherDisplay:10.37 W/m2 FEW
15:05 80.2 °F /  26.8 °C 59.9 °F /  15.5 °C 29.94 in /  1013.8 hPa Calm     50 % 0 in /  0 mm WeatherDisplay:10.37 W/m2 FEW
15:10 80.2 °F /  26.8 °C 60.4 °F /  15.8 °C 29.94 in /  1013.8 hPa Calm   4 mph /  6.4 km/h 51 % 0 in /  0 mm WeatherDisplay:10.37 W/m2 FEW
15:15 80.1 °F /  26.7 °C 60.4 °F /  15.8 °C 29.94 in /  1013.8 hPa Calm     51 % 0 in /  0 mm WeatherDisplay:10.37 W/m2 FEW
15:20 80.3 °F /  26.8 °C 60 °F /  15.6 °C 29.94 in /  1013.8 hPa Calm     50 % 0 in /  0 mm WeatherDisplay:10.37 W/m2 FEW
15:25 80.5 °F /  26.9 °C 60.7 °F /  15.9 °C 29.94 in /  1013.8 hPa Calm   2 mph /  3.2 km/h 51 % 0 in /  0 mm WeatherDisplay:10.37 W/m2 FEW
15:30 80.7 °F /  27.1 °C 60.9 °F /  16.1 °C 29.94 in /  1013.8 hPa Calm   1 mph /  1.6 km/h 51 % 0 in /  0 mm WeatherDisplay:10.37 W/m2 FEW
15:35 80.9 °F /  27.2 °C 61.1 °F /  16.2 °C 29.94 in /  1013.8 hPa Calm     51 % 0 in /  0 mm WeatherDisplay:10.37 W/m2 FEW
15:40 81.1 °F /  27.3 °C 60.7 °F /  15.9 °C 29.94 in /  1013.8 hPa Calm   3 mph /  4.8 km/h 50 % 0 in /  0 mm WeatherDisplay:10.37 W/m2 FEW
15:45 81.3 °F /  27.4 °C 60.3 °F /  15.7 °C 29.94 in /  1013.8 hPa Calm   1 mph /  1.6 km/h 49 % 0 in /  0 mm WeatherDisplay:10.37 W/m2 FEW
15:50 81.4 °F /  27.4 °C 59.2 °F /  15.1 °C 29.94 in /  1013.8 hPa East 1 mph /  1.6 km/h 3 mph /  4.8 km/h 47 % 0 in /  0 mm WeatherDisplay:10.37 W/m2 FEW
15:55 81.3 °F /  27.4 °C 60.9 °F /  16.1 °C 29.94 in /  1013.8 hPa Calm   1 mph /  1.6 km/h 50 % 0 in /  0 mm WeatherDisplay:10.37 W/m2 FEW
16:00 81.1 °F /  27.3 °C 60.7 °F /  15.9 °C 29.94 in /  1013.8 hPa Calm   1 mph /  1.6 km/h 50 % 0 in /  0 mm WeatherDisplay:10.37 W/m2 FEW
16:05 81 °F /  27.2 °C 61.2 °F /  16.2 °C 29.94 in /  1013.8 hPa Calm   1 mph /  1.6 km/h 51 % 0 in /  0 mm WeatherDisplay:10.37 W/m2 FEW
16:10 80.9 °F /  27.2 °C 61.6 °F /  16.4 °C 29.94 in /  1013.8 hPa Calm   2 mph /  3.2 km/h 52 % 0 in /  0 mm WeatherDisplay:10.37 W/m2 FEW
16:15 80.9 °F /  27.2 °C 60.5 °F /  15.8 °C 29.94 in /  1013.8 hPa Calm   2 mph /  3.2 km/h 50 % 0 in /  0 mm WeatherDisplay:10.37 W/m2 FEW
16:20 80.8 °F /  27.1 °C 59.3 °F /  15.2 °C 29.93 in /  1013.4 hPa Calm     48 % 0 in /  0 mm WeatherDisplay:10.37 W/m2 FEW
16:25 80.8 °F /  27.1 °C 60.4 °F /  15.8 °C 29.93 in /  1013.4 hPa Calm   2 mph /  3.2 km/h 50 % 0 in /  0 mm WeatherDisplay:10.37 W/m2 FEW
16:30 80.8 °F /  27.1 °C 60.4 °F /  15.8 °C 29.93 in /  1013.4 hPa Calm   2 mph /  3.2 km/h 50 % 0 in /  0 mm WeatherDisplay:10.37 W/m2 FEW
16:35 80.8 °F /  27.1 °C 59.9 °F /  15.5 °C 29.93 in /  1013.4 hPa Calm   2 mph /  3.2 km/h 49 % 0 in /  0 mm WeatherDisplay:10.37 W/m2 FEW
16:40 80.8 °F /  27.1 °C 60.4 °F /  15.8 °C 29.93 in /  1013.4 hPa Calm   4 mph /  6.4 km/h 50 % 0 in /  0 mm WeatherDisplay:10.37 W/m2 FEW
16:45 80.7 °F /  27.1 °C 59.8 °F /  15.4 °C 29.93 in /  1013.4 hPa Calm   2 mph /  3.2 km/h 49 % 0 in /  0 mm WeatherDisplay:10.37 W/m2 FEW
16:50 80.7 °F /  27.1 °C 59.8 °F /  15.4 °C 29.93 in /  1013.4 hPa Calm   1 mph /  1.6 km/h 49 % 0 in /  0 mm WeatherDisplay:10.37 W/m2 FEW
16:55 80.7 °F /  27.1 °C 58 °F /  14.4 °C 29.93 in /  1013.4 hPa Calm   2 mph /  3.2 km/h 46 % 0 in /  0 mm WeatherDisplay:10.37 W/m2 FEW
17:00 80.6 °F /  27 °C 59.1 °F /  15.1 °C 29.93 in /  1013.4 hPa Calm     48 % 0 in /  0 mm WeatherDisplay:10.37 W/m2 FEW
17:05 80.5 °F /  26.9 °C 57.8 °F /  14.3 °C 29.93 in /  1013.4 hPa Calm   1 mph /  1.6 km/h 46 % 0 in /  0 mm WeatherDisplay:10.37 W/m2 FEW
17:10 80.5 °F /  26.9 °C 57.2 °F /  14 °C 29.93 in /  1013.4 hPa Calm     45 % 0 in /  0 mm WeatherDisplay:10.37 W/m2 FEW
17:15 80.4 °F /  26.9 °C 57.7 °F /  14.3 °C 29.93 in /  1013.4 hPa Calm     46 % 0 in /  0 mm WeatherDisplay:10.37 W/m2 FEW
17:20 80.3 °F /  26.8 °C 56.4 °F /  13.6 °C 29.93 in /  1013.4 hPa Calm   1 mph /  1.6 km/h 44 % 0 in /  0 mm WeatherDisplay:10.37 W/m2 FEW
17:25 80.4 °F /  26.9 °C 56.5 °F /  13.6 °C 29.93 in /  1013.4 hPa Calm   2 mph /  3.2 km/h 44 % 0 in /  0 mm WeatherDisplay:10.37 W/m2 FEW
17:30 80.5 °F /  26.9 °C 57.8 °F /  14.3 °C 29.93 in /  1013.4 hPa Calm     46 % 0 in /  0 mm WeatherDisplay:10.37 W/m2 FEW
17:35 80.5 °F /  26.9 °C 56.6 °F /  13.7 °C 29.93 in /  1013.4 hPa Calm     44 % 0 in /  0 mm WeatherDisplay:10.37 W/m2 FEW
17:40 80.5 °F /  26.9 °C 57.8 °F /  14.3 °C 29.93 in /  1013.4 hPa Calm   1 mph /  1.6 km/h 46 % 0 in /  0 mm WeatherDisplay:10.37 W/m2 FEW
17:45 80.5 °F /  26.9 °C 56.6 °F /  13.7 °C 29.94 in /  1013.8 hPa Calm     44 % 0 in /  0 mm WeatherDisplay:10.37 W/m2 FEW
17:50 80.5 °F /  26.9 °C 57.2 °F /  14 °C 29.94 in /  1013.8 hPa Calm     45 % 0 in /  0 mm WeatherDisplay:10.37 W/m2 FEW
17:55 80.4 °F /  26.9 °C 55.9 °F /  13.3 °C 29.94 in /  1013.8 hPa Calm     43 % 0 in /  0 mm WeatherDisplay:10.37 W/m2 FEW
18:00 80.3 °F /  26.8 °C 55.8 °F /  13.2 °C 29.94 in /  1013.8 hPa Calm     43 % 0 in /  0 mm WeatherDisplay:10.37 W/m2 FEW
18:05 80.3 °F /  26.8 °C 55.1 °F /  12.8 °C 29.94 in /  1013.8 hPa Calm     42 % 0 in /  0 mm WeatherDisplay:10.37 W/m2 FEW
18:10 80.1 °F /  26.7 °C 55.6 °F /  13.1 °C 29.94 in /  1013.8 hPa Calm     43 % 0 in /  0 mm WeatherDisplay:10.37 W/m2 FEW
18:15 80 °F /  26.7 °C 56.1 °F /  13.4 °C 29.94 in /  1013.8 hPa Calm     44 % 0 in /  0 mm WeatherDisplay:10.37 W/m2 FEW
18:20 79.9 °F /  26.6 °C 56.7 °F /  13.7 °C 29.94 in /  1013.8 hPa Calm     45 % 0 in /  0 mm WeatherDisplay:10.37 W/m2 FEW
18:25 79.8 °F /  26.6 °C 58.4 °F /  14.7 °C 29.94 in /  1013.8 hPa Calm     48 % 0 in /  0 mm WeatherDisplay:10.37 W/m2 FEW
18:30 79.6 °F /  26.4 °C 57.6 °F /  14.2 °C 29.94 in /  1013.8 hPa Calm     47 % 0 in /  0 mm WeatherDisplay:10.37 W/m2 FEW
18:35 79.5 °F /  26.4 °C 57.5 °F /  14.2 °C 29.94 in /  1013.8 hPa Calm     47 % 0 in /  0 mm WeatherDisplay:10.37 W/m2 FEW
18:40 79.4 °F /  26.3 °C 58 °F /  14.4 °C 29.94 in /  1013.8 hPa Calm     48 % 0 in /  0 mm WeatherDisplay:10.37 W/m2 FEW
18:45 79.2 °F /  26.2 °C 57.8 °F /  14.3 °C 29.94 in /  1013.8 hPa Calm     48 % 0 in /  0 mm WeatherDisplay:10.37 W/m2 FEW
18:50 79 °F /  26.1 °C 58.8 °F /  14.9 °C 29.94 in /  1013.8 hPa Calm     50 % 0 in /  0 mm WeatherDisplay:10.37 W/m2 FEW
18:55 78.7 °F /  25.9 °C 57.9 °F /  14.4 °C 29.94 in /  1013.8 hPa Calm     49 % 0 in /  0 mm WeatherDisplay:10.37 W/m2 FEW
19:00 78.5 °F /  25.8 °C 59.4 °F /  15.2 °C 29.95 in /  1014.1 hPa Calm     52 % 0 in /  0 mm WeatherDisplay:10.37 W/m2 FEW
19:05 78.3 °F /  25.7 °C 60.3 °F /  15.7 °C 29.95 in /  1014.1 hPa Calm     54 % 0 in /  0 mm WeatherDisplay:10.37 W/m2 FEW
19:10 78 °F /  25.6 °C 60.5 °F /  15.8 °C 29.95 in /  1014.1 hPa Calm     55 % 0 in /  0 mm WeatherDisplay:10.37 W/m2 FEW
19:15 77.6 °F /  25.3 °C 61.2 °F /  16.2 °C 29.95 in /  1014.1 hPa Calm     57 % 0 in /  0 mm WeatherDisplay:10.37 W/m2 FEW
19:20 77.3 °F /  25.2 °C 61.4 °F /  16.3 °C 29.95 in /  1014.1 hPa Calm     58 % 0 in /  0 mm WeatherDisplay:10.37 W/m2 FEW
19:25 76.8 °F /  24.9 °C 61.9 °F /  16.6 °C 29.95 in /  1014.1 hPa Calm     60 % 0 in /  0 mm WeatherDisplay:10.37 W/m2 FEW
19:30 76.4 °F /  24.7 °C 61.5 °F /  16.4 °C 29.95 in /  1014.1 hPa Calm     60 % 0 in /  0 mm WeatherDisplay:10.37 W/m2 FEW
19:35 75.9 °F /  24.4 °C 62 °F /  16.7 °C 29.95 in /  1014.1 hPa Calm     62 % 0 in /  0 mm WeatherDisplay:10.37 W/m2 FEW
19:40 75.5 °F /  24.2 °C 61.6 °F /  16.4 °C 29.95 in /  1014.1 hPa Calm     62 % 0 in /  0 mm WeatherDisplay:10.37 W/m2 FEW
19:45 75.4 °F /  24.1 °C 61.9 °F /  16.6 °C 29.95 in /  1014.1 hPa Calm     63 % 0 in /  0 mm WeatherDisplay:10.37 W/m2 FEW
19:50 74.8 °F /  23.8 °C 62.3 °F /  16.8 °C 29.95 in /  1014.1 hPa Calm     65 % 0 in /  0 mm WeatherDisplay:10.37 W/m2 FEW
19:55 74.3 °F /  23.5 °C 62.2 °F /  16.8 °C 29.95 in /  1014.1 hPa Calm     66 % 0 in /  0 mm WeatherDisplay:10.37 W/m2 FEW
20:00 73.9 °F /  23.3 °C 61.8 °F /  16.6 °C 29.96 in /  1014.4 hPa Calm     66 % 0 in /  0 mm WeatherDisplay:10.37 W/m2 FEW
20:05 73.2 °F /  22.9 °C 61.6 °F /  16.4 °C 29.96 in /  1014.4 hPa Calm     67 % 0 in /  0 mm WeatherDisplay:10.37 W/m2 FEW
20:10 72.5 °F /  22.5 °C 61 °F /  16.1 °C 29.96 in /  1014.4 hPa Calm     67 % 0 in /  0 mm WeatherDisplay:10.37 W/m2 FEW
20:15 72 °F /  22.2 °C 60.4 °F /  15.8 °C 29.96 in /  1014.4 hPa Calm     67 % 0 in /  0 mm WeatherDisplay:10.37 W/m2 FEW
20:20 71.5 °F /  21.9 °C 60.4 °F /  15.8 °C 29.96 in /  1014.4 hPa Calm     68 % 0 in /  0 mm WeatherDisplay:10.37 W/m2 FEW
20:25 71.1 °F /  21.7 °C 60.4 °F /  15.8 °C 29.96 in /  1014.4 hPa Calm     69 % 0 in /  0 mm WeatherDisplay:10.37 W/m2 FEW
20:30 70.6 °F /  21.4 °C 60.4 °F /  15.8 °C 29.96 in /  1014.4 hPa Calm     70 % 0 in /  0 mm WeatherDisplay:10.37 W/m2 FEW
20:35 70.2 °F /  21.2 °C 60 °F /  15.6 °C 29.96 in /  1014.4 hPa Calm     70 % 0 in /  0 mm WeatherDisplay:10.37 W/m2 FEW
20:40 69.8 °F /  21 °C 60.3 °F /  15.7 °C 29.97 in /  1014.8 hPa Calm     72 % 0 in /  0 mm WeatherDisplay:10.37 W/m2 FEW
20:45 69.4 °F /  20.8 °C 60 °F /  15.6 °C 29.97 in /  1014.8 hPa Calm     72 % 0 in /  0 mm WeatherDisplay:10.37 W/m2 FEW
20:50 69 °F /  20.6 °C 59.9 °F /  15.5 °C 29.98 in /  1015.1 hPa Calm     73 % 0 in /  0 mm WeatherDisplay:10.37 W/m2 FEW
20:55 68.6 °F /  20.3 °C 59.6 °F /  15.3 °C 29.98 in /  1015.1 hPa Calm     73 % 0 in /  0 mm WeatherDisplay:10.37 W/m2 FEW
21:00 68.3 °F /  20.2 °C 59.3 °F /  15.2 °C 29.98 in /  1015.1 hPa Calm     73 % 0 in /  0 mm WeatherDisplay:10.37 W/m2 FEW
21:05 68 °F /  20 °C 59.4 °F /  15.2 °C 29.98 in /  1015.1 hPa Calm     74 % 0 in /  0 mm WeatherDisplay:10.37 W/m2 FEW
21:10 67.7 °F /  19.8 °C 59.1 °F /  15.1 °C 29.98 in /  1015.1 hPa Calm     74 % 0 in /  0 mm WeatherDisplay:10.37 W/m2 FEW
21:15 67.4 °F /  19.7 °C 59.2 °F /  15.1 °C 29.98 in /  1015.1 hPa Calm     75 % 0 in /  0 mm WeatherDisplay:10.37 W/m2 FEW
21:20 67 °F /  19.4 °C 59.2 °F /  15.1 °C 29.98 in /  1015.1 hPa Calm     76 % 0 in /  0 mm WeatherDisplay:10.37 W/m2 FEW
21:25 66.7 °F /  19.3 °C 59.3 °F /  15.2 °C 29.98 in /  1015.1 hPa Calm     77 % 0 in /  0 mm WeatherDisplay:10.37 W/m2 FEW
21:30 66.4 °F /  19.1 °C 59 °F /  15 °C 29.98 in /  1015.1 hPa Calm     77 % 0 in /  0 mm WeatherDisplay:10.37 W/m2 FEW
21:35 66.1 °F /  18.9 °C 59.4 °F /  15.2 °C 29.99 in /  1015.5 hPa Calm     79 % 0 in /  0 mm WeatherDisplay:10.37 W/m2 FEW
21:40 65.8 °F /  18.8 °C 59.1 °F /  15.1 °C 29.99 in /  1015.5 hPa Calm     79 % 0 in /  0 mm WeatherDisplay:10.37 W/m2 FEW
21:45 65.5 °F /  18.6 °C 59.2 °F /  15.1 °C 29.99 in /  1015.5 hPa Calm     80 % 0 in /  0 mm WeatherDisplay:10.37 W/m2 FEW
21:50 65.2 °F /  18.4 °C 59.3 °F /  15.2 °C 29.99 in /  1015.5 hPa Calm     81 % 0 in /  0 mm WeatherDisplay:10.37 W/m2 FEW
21:55 65 °F /  18.3 °C 59 °F /  15 °C 29.99 in /  1015.5 hPa Calm     81 % 0 in /  0 mm WeatherDisplay:10.37 W/m2 FEW
22:00 64.7 °F /  18.2 °C 59.1 °F /  15.1 °C 29.99 in /  1015.5 hPa Calm     82 % 0 in /  0 mm WeatherDisplay:10.37 W/m2 FEW
22:05 64.5 °F /  18.1 °C 58.9 °F /  14.9 °C 29.99 in /  1015.5 hPa Calm     82 % 0 in /  0 mm WeatherDisplay:10.37 W/m2 FEW
22:10 64.2 °F /  17.9 °C 58.6 °F /  14.8 °C 29.99 in /  1015.5 hPa Calm     82 % 0 in /  0 mm WeatherDisplay:10.37 W/m2 FEW
22:15 64 °F /  17.8 °C 58.4 °F /  14.7 °C 29.99 in /  1015.5 hPa Calm     82 % 0 in /  0 mm WeatherDisplay:10.37 W/m2 FEW
22:20 63.8 °F /  17.7 °C 58.5 °F /  14.7 °C 29.99 in /  1015.5 hPa Calm     83 % 0 in /  0 mm WeatherDisplay:10.37 W/m2 FEW
22:25 63.6 °F /  17.6 °C 58.3 °F /  14.6 °C 30.00 in /  1015.8 hPa Calm     83 % 0 in /  0 mm WeatherDisplay:10.37 W/m2 FEW
22:30 63.4 °F /  17.4 °C 58.1 °F /  14.5 °C 30.00 in /  1015.8 hPa Calm     83 % 0 in /  0 mm WeatherDisplay:10.37 W/m2 FEW
22:35 63.1 °F /  17.3 °C 58.2 °F /  14.6 °C 30.00 in /  1015.8 hPa Calm     84 % 0 in /  0 mm WeatherDisplay:10.37 W/m2 FEW
22:40 63 °F /  17.2 °C 58.1 °F /  14.5 °C 30.00 in /  1015.8 hPa Calm     84 % 0 in /  0 mm WeatherDisplay:10.37 W/m2 FEW
22:45 62.8 °F /  17.1 °C 58.2 °F /  14.6 °C 30.00 in /  1015.8 hPa Calm     85 % 0 in /  0 mm WeatherDisplay:10.37 W/m2 FEW
22:50 62.5 °F /  16.9 °C 58 °F /  14.4 °C 30.00 in /  1015.8 hPa Calm     85 % 0 in /  0 mm WeatherDisplay:10.37 W/m2 FEW
22:55 62.4 °F /  16.9 °C 58.1 °F /  14.5 °C 30.00 in /  1015.8 hPa Calm     86 % 0 in /  0 mm WeatherDisplay:10.37 W/m2 FEW
23:00 62.2 °F /  16.8 °C 57.9 °F /  14.4 °C 30.00 in /  1015.8 hPa Calm     86 % 0 in /  0 mm WeatherDisplay:10.37 W/m2 FEW
23:05 62 °F /  16.7 °C 57.8 °F /  14.3 °C 30.00 in /  1015.8 hPa Calm     86 % 0 in /  0 mm WeatherDisplay:10.37 W/m2 FEW
23:10 61.8 °F /  16.6 °C 57.6 °F /  14.2 °C 30.00 in /  1015.8 hPa Calm     86 % 0 in /  0 mm WeatherDisplay:10.37 W/m2 FEW
23:15 61.7 °F /  16.5 °C 57.4 °F /  14.1 °C 30.00 in /  1015.8 hPa Calm     86 % 0 in /  0 mm WeatherDisplay:10.37 W/m2 FEW
23:20 61.5 °F /  16.4 °C 57.3 °F /  14.1 °C 30.00 in /  1015.8 hPa Calm     86 % 0 in /  0 mm WeatherDisplay:10.37 W/m2 FEW
23:25 61.3 °F /  16.3 °C 57.1 °F /  13.9 °C 30.00 in /  1015.8 hPa Calm     86 % 0 in /  0 mm WeatherDisplay:10.37 W/m2 FEW
23:30 61.2 °F /  16.2 °C 57 °F /  13.9 °C 30.00 in /  1015.8 hPa Calm     86 % 0 in /  0 mm WeatherDisplay:10.37 W/m2 FEW
23:35 61 °F /  16.1 °C 56.8 °F /  13.8 °C 30.00 in /  1015.8 hPa Calm     86 % 0 in /  0 mm WeatherDisplay:10.37 W/m2 FEW
23:40 60.9 °F /  16.1 °C 56.7 °F /  13.7 °C 30.00 in /  1015.8 hPa Calm     86 % 0 in /  0 mm WeatherDisplay:10.37 W/m2 FEW
23:45 60.8 °F /  16 °C 56.6 °F /  13.7 °C 30.00 in /  1015.8 hPa Calm     86 % 0 in /  0 mm WeatherDisplay:10.37 W/m2 FEW
23:50 60.6 °F /  15.9 °C 56.4 °F /  13.6 °C 30.00 in /  1015.8 hPa Calm     86 % 0 in /  0 mm WeatherDisplay:10.37 W/m2 FEW
23:55 60.5 °F /  15.8 °C 56.6 °F /  13.7 °C 30.00 in /  1015.8 hPa Calm     87 % 0 in /  0 mm WeatherDisplay:10.37 W/m2 FEW
Juneau County Weather
Compliments of Weather Underground - 3 mb